sensor_id;sensor_type;location;lat;lon;timestamp;P1;durP1;ratioP1;P2;durP2;ratioP2
26750;SDS011;14345;48.272;25.926;2023-12-20T00:00:57;24.55;;;13.45;;
26750;SDS011;14345;48.272;25.926;2023-12-20T00:03:23;20.92;;;11.10;;
26750;SDS011;14345;48.272;25.926;2023-12-20T00:05:49;16.45;;;10.30;;
26750;SDS011;14345;48.272;25.926;2023-12-20T00:08:16;17.20;;;10.48;;
26750;SDS011;14345;48.272;25.926;2023-12-20T00:10:43;18.33;;;10.82;;
26750;SDS011;14345;48.272;25.926;2023-12-20T00:13:09;16.60;;;8.98;;
26750;SDS011;14345;48.272;25.926;2023-12-20T00:15:35;15.73;;;9.02;;
26750;SDS011;14345;48.272;25.926;2023-12-20T00:18:01;16.17;;;9.57;;
26750;SDS011;14345;48.272;25.926;2023-12-20T00:20:27;15.73;;;9.30;;
26750;SDS011;14345;48.272;25.926;2023-12-20T00:22:55;13.25;;;8.38;;
26750;SDS011;14345;48.272;25.926;2023-12-20T00:25:22;16.98;;;9.75;;
26750;SDS011;14345;48.272;25.926;2023-12-20T00:27:48;15.20;;;9.23;;
26750;SDS011;14345;48.272;25.926;2023-12-20T00:30:14;13.95;;;8.60;;
26750;SDS011;14345;48.272;25.926;2023-12-20T00:32:40;16.33;;;8.82;;
26750;SDS011;14345;48.272;25.926;2023-12-20T00:35:11;14.82;;;8.57;;
26750;SDS011;14345;48.272;25.926;2023-12-20T00:37:37;14.75;;;8.77;;
26750;SDS011;14345;48.272;25.926;2023-12-20T00:40:03;14.45;;;8.65;;
26750;SDS011;14345;48.272;25.926;2023-12-20T00:42:29;14.10;;;8.50;;
26750;SDS011;14345;48.272;25.926;2023-12-20T00:44:55;12.52;;;8.32;;
26750;SDS011;14345;48.272;25.926;2023-12-20T00:47:21;13.15;;;7.35;;
26750;SDS011;14345;48.272;25.926;2023-12-20T00:49:47;14.00;;;7.50;;
26750;SDS011;14345;48.272;25.926;2023-12-20T00:52:13;10.85;;;6.55;;
26750;SDS011;14345;48.272;25.926;2023-12-20T00:54:39;9.80;;;6.50;;
26750;SDS011;14345;48.272;25.926;2023-12-20T00:57:05;11.50;;;6.57;;
26750;SDS011;14345;48.272;25.926;2023-12-20T00:59:31;10.15;;;6.55;;
26750;SDS011;14345;48.272;25.926;2023-12-20T01:01:58;10.80;;;6.63;;
26750;SDS011;14345;48.272;25.926;2023-12-20T01:04:24;13.50;;;7.75;;
26750;SDS011;14345;48.272;25.926;2023-12-20T01:06:50;13.98;;;8.68;;
26750;SDS011;14345;48.272;25.926;2023-12-20T01:09:15;14.48;;;8.77;;
26750;SDS011;14345;48.272;25.926;2023-12-20T01:11:42;16.83;;;9.45;;
26750;SDS011;14345;48.272;25.926;2023-12-20T01:14:08;15.25;;;10.05;;
26750;SDS011;14345;48.272;25.926;2023-12-20T01:16:34;16.00;;;10.10;;
26750;SDS011;14345;48.272;25.926;2023-12-20T01:18:59;14.88;;;9.00;;
26750;SDS011;14345;48.272;25.926;2023-12-20T01:21:25;16.08;;;9.63;;
26750;SDS011;14345;48.272;25.926;2023-12-20T01:23:51;17.40;;;9.15;;
26750;SDS011;14345;48.272;25.926;2023-12-20T01:26:17;17.33;;;9.60;;
26750;SDS011;14345;48.272;25.926;2023-12-20T01:28:43;16.77;;;10.52;;
26750;SDS011;14345;48.272;25.926;2023-12-20T01:31:09;21.17;;;12.00;;
26750;SDS011;14345;48.272;25.926;2023-12-20T01:33:35;17.67;;;11.32;;
26750;SDS011;14345;48.272;25.926;2023-12-20T01:36:01;18.67;;;11.73;;
26750;SDS011;14345;48.272;25.926;2023-12-20T01:38:27;18.52;;;11.27;;
26750;SDS011;14345;48.272;25.926;2023-12-20T01:40:53;20.50;;;11.15;;
26750;SDS011;14345;48.272;25.926;2023-12-20T01:43:20;16.08;;;11.02;;
26750;SDS011;14345;48.272;25.926;2023-12-20T01:45:46;14.77;;;9.75;;
26750;SDS011;14345;48.272;25.926;2023-12-20T01:48:12;16.45;;;10.57;;
26750;SDS011;14345;48.272;25.926;2023-12-20T01:50:39;16.80;;;10.73;;
26750;SDS011;14345;48.272;25.926;2023-12-20T01:53:06;19.13;;;10.77;;
26750;SDS011;14345;48.272;25.926;2023-12-20T01:55:33;17.67;;;10.05;;
26750;SDS011;14345;48.272;25.926;2023-12-20T01:58:00;15.35;;;10.40;;
26750;SDS011;14345;48.272;25.926;2023-12-20T02:00:27;17.13;;;10.18;;
26750;SDS011;14345;48.272;25.926;2023-12-20T02:02:53;13.60;;;8.95;;
26750;SDS011;14345;48.272;25.926;2023-12-20T02:05:22;14.88;;;9.05;;
26750;SDS011;14345;48.272;25.926;2023-12-20T02:07:49;16.05;;;10.93;;
26750;SDS011;14345;48.272;25.926;2023-12-20T02:10:15;17.38;;;10.63;;
26750;SDS011;14345;48.272;25.926;2023-12-20T02:12:41;20.90;;;13.10;;
26750;SDS011;14345;48.272;25.926;2023-12-20T02:15:07;22.23;;;13.82;;
26750;SDS011;14345;48.272;25.926;2023-12-20T02:17:33;22.33;;;13.60;;
26750;SDS011;14345;48.272;25.926;2023-12-20T02:19:59;20.90;;;12.98;;
26750;SDS011;14345;48.272;25.926;2023-12-20T02:22:25;21.30;;;13.23;;
26750;SDS011;14345;48.272;25.926;2023-12-20T02:24:51;25.13;;;13.80;;
26750;SDS011;14345;48.272;25.926;2023-12-20T02:27:17;22.67;;;13.38;;
26750;SDS011;14345;48.272;25.926;2023-12-20T02:29:44;21.50;;;13.57;;
26750;SDS011;14345;48.272;25.926;2023-12-20T02:32:10;19.13;;;12.45;;
26750;SDS011;14345;48.272;25.926;2023-12-20T02:34:35;22.33;;;12.65;;
26750;SDS011;14345;48.272;25.926;2023-12-20T02:37:01;20.83;;;12.82;;
26750;SDS011;14345;48.272;25.926;2023-12-20T02:39:27;21.40;;;13.30;;
26750;SDS011;14345;48.272;25.926;2023-12-20T02:41:53;20.75;;;12.02;;
26750;SDS011;14345;48.272;25.926;2023-12-20T02:44:19;20.75;;;11.45;;
26750;SDS011;14345;48.272;25.926;2023-12-20T02:46:45;17.95;;;11.30;;
26750;SDS011;14345;48.272;25.926;2023-12-20T02:49:11;20.33;;;12.07;;
26750;SDS011;14345;48.272;25.926;2023-12-20T02:51:38;17.67;;;11.48;;
26750;SDS011;14345;48.272;25.926;2023-12-20T02:54:04;16.77;;;10.10;;
26750;SDS011;14345;48.272;25.926;2023-12-20T02:56:30;16.08;;;10.68;;
26750;SDS011;14345;48.272;25.926;2023-12-20T02:58:56;15.77;;;9.07;;
26750;SDS011;14345;48.272;25.926;2023-12-20T03:01:22;15.48;;;9.32;;
26750;SDS011;14345;48.272;25.926;2023-12-20T03:03:49;13.18;;;7.80;;
26750;SDS011;14345;48.272;25.926;2023-12-20T03:06:16;13.43;;;8.50;;
26750;SDS011;14345;48.272;25.926;2023-12-20T03:08:43;14.63;;;8.63;;
26750;SDS011;14345;48.272;25.926;2023-12-20T03:11:09;15.35;;;9.45;;
26750;SDS011;14345;48.272;25.926;2023-12-20T03:13:34;15.77;;;9.48;;
26750;SDS011;14345;48.272;25.926;2023-12-20T03:16:00;12.20;;;7.90;;
26750;SDS011;14345;48.272;25.926;2023-12-20T03:18:26;13.50;;;7.80;;
26750;SDS011;14345;48.272;25.926;2023-12-20T03:20:53;10.15;;;6.75;;
26750;SDS011;14345;48.272;25.926;2023-12-20T03:23:19;10.43;;;6.30;;
26750;SDS011;14345;48.272;25.926;2023-12-20T03:25:45;10.05;;;5.93;;
26750;SDS011;14345;48.272;25.926;2023-12-20T03:28:14;9.32;;;5.68;;
26750;SDS011;14345;48.272;25.926;2023-12-20T03:30:40;8.23;;;5.43;;
26750;SDS011;14345;48.272;25.926;2023-12-20T03:33:06;8.98;;;5.53;;
26750;SDS011;14345;48.272;25.926;2023-12-20T03:35:32;8.30;;;4.97;;
26750;SDS011;14345;48.272;25.926;2023-12-20T03:37:58;7.53;;;4.65;;
26750;SDS011;14345;48.272;25.926;2023-12-20T03:40:25;6.03;;;4.28;;
26750;SDS011;14345;48.272;25.926;2023-12-20T03:42:51;6.88;;;4.20;;
26750;SDS011;14345;48.272;25.926;2023-12-20T03:45:17;8.63;;;5.57;;
26750;SDS011;14345;48.272;25.926;2023-12-20T03:47:43;9.20;;;5.30;;
26750;SDS011;14345;48.272;25.926;2023-12-20T03:50:09;9.30;;;5.63;;
26750;SDS011;14345;48.272;25.926;2023-12-20T03:52:35;8.60;;;5.50;;
26750;SDS011;14345;48.272;25.926;2023-12-20T03:55:01;7.82;;;4.95;;
26750;SDS011;14345;48.272;25.926;2023-12-20T03:57:27;9.30;;;6.07;;
26750;SDS011;14345;48.272;25.926;2023-12-20T03:59:53;12.20;;;6.28;;
26750;SDS011;14345;48.272;25.926;2023-12-20T04:02:19;9.05;;;5.80;;
26750;SDS011;14345;48.272;25.926;2023-12-20T04:04:45;9.05;;;5.78;;
26750;SDS011;14345;48.272;25.926;2023-12-20T04:07:11;10.23;;;5.63;;
26750;SDS011;14345;48.272;25.926;2023-12-20T04:09:37;9.07;;;5.63;;
26750;SDS011;14345;48.272;25.926;2023-12-20T04:12:03;9.50;;;5.63;;
26750;SDS011;14345;48.272;25.926;2023-12-20T04:14:30;10.02;;;5.72;;
26750;SDS011;14345;48.272;25.926;2023-12-20T04:16:56;7.95;;;5.47;;
26750;SDS011;14345;48.272;25.926;2023-12-20T04:19:22;8.13;;;5.25;;
26750;SDS011;14345;48.272;25.926;2023-12-20T04:21:48;7.50;;;4.95;;
26750;SDS011;14345;48.272;25.926;2023-12-20T04:24:14;9.45;;;5.53;;
26750;SDS011;14345;48.272;25.926;2023-12-20T04:26:40;8.10;;;5.47;;
26750;SDS011;14345;48.272;25.926;2023-12-20T04:29:06;9.18;;;5.30;;
26750;SDS011;14345;48.272;25.926;2023-12-20T04:31:32;9.00;;;5.93;;
26750;SDS011;14345;48.272;25.926;2023-12-20T04:33:58;10.02;;;6.30;;
26750;SDS011;14345;48.272;25.926;2023-12-20T04:36:24;16.13;;;8.43;;
26750;SDS011;14345;48.272;25.926;2023-12-20T04:38:52;12.32;;;7.53;;
26750;SDS011;14345;48.272;25.926;2023-12-20T04:41:17;13.70;;;7.72;;
26750;SDS011;14345;48.272;25.926;2023-12-20T04:43:44;13.00;;;7.50;;
26750;SDS011;14345;48.272;25.926;2023-12-20T04:46:10;10.23;;;6.28;;
26750;SDS011;14345;48.272;25.926;2023-12-20T04:48:36;13.35;;;7.63;;
26750;SDS011;14345;48.272;25.926;2023-12-20T04:51:02;12.45;;;7.35;;
26750;SDS011;14345;48.272;25.926;2023-12-20T04:53:28;12.98;;;8.38;;
26750;SDS011;14345;48.272;25.926;2023-12-20T04:55:54;15.32;;;8.25;;
26750;SDS011;14345;48.272;25.926;2023-12-20T04:58:20;13.43;;;8.00;;
26750;SDS011;14345;48.272;25.926;2023-12-20T05:00:46;12.65;;;8.27;;
26750;SDS011;14345;48.272;25.926;2023-12-20T05:03:12;12.73;;;8.20;;
26750;SDS011;14345;48.272;25.926;2023-12-20T05:05:38;16.23;;;8.98;;
26750;SDS011;14345;48.272;25.926;2023-12-20T05:08:04;15.15;;;8.57;;
26750;SDS011;14345;48.272;25.926;2023-12-20T05:10:30;14.63;;;8.40;;
26750;SDS011;14345;48.272;25.926;2023-12-20T05:12:56;14.38;;;8.43;;
26750;SDS011;14345;48.272;25.926;2023-12-20T05:15:22;12.52;;;6.80;;
26750;SDS011;14345;48.272;25.926;2023-12-20T05:17:48;12.02;;;6.75;;
26750;SDS011;14345;48.272;25.926;2023-12-20T05:20:14;13.32;;;6.68;;
26750;SDS011;14345;48.272;25.926;2023-12-20T05:22:41;10.45;;;5.72;;
26750;SDS011;14345;48.272;25.926;2023-12-20T05:25:07;90.32;;;48.75;;
26750;SDS011;14345;48.272;25.926;2023-12-20T05:27:33;72.95;;;42.17;;
26750;SDS011;14345;48.272;25.926;2023-12-20T05:29:59;40.30;;;22.88;;
26750;SDS011;14345;48.272;25.926;2023-12-20T05:32:25;20.63;;;12.43;;
26750;SDS011;14345;48.272;25.926;2023-12-20T05:34:51;15.25;;;7.55;;
26750;SDS011;14345;48.272;25.926;2023-12-20T05:37:17;10.80;;;6.95;;
26750;SDS011;14345;48.272;25.926;2023-12-20T05:39:43;13.20;;;7.13;;
26750;SDS011;14345;48.272;25.926;2023-12-20T05:42:09;15.70;;;7.05;;
26750;SDS011;14345;48.272;25.926;2023-12-20T05:44:35;10.70;;;7.00;;
26750;SDS011;14345;48.272;25.926;2023-12-20T05:47:01;14.75;;;7.72;;
26750;SDS011;14345;48.272;25.926;2023-12-20T05:49:27;14.57;;;8.02;;
26750;SDS011;14345;48.272;25.926;2023-12-20T05:51:53;17.60;;;9.00;;
26750;SDS011;14345;48.272;25.926;2023-12-20T05:54:19;22.50;;;13.35;;
26750;SDS011;14345;48.272;25.926;2023-12-20T05:56:46;19.00;;;11.00;;
26750;SDS011;14345;48.272;25.926;2023-12-20T05:59:12;11.52;;;7.25;;
26750;SDS011;14345;48.272;25.926;2023-12-20T06:01:38;12.88;;;7.60;;
26750;SDS011;14345;48.272;25.926;2023-12-20T06:04:04;11.65;;;6.53;;
26750;SDS011;14345;48.272;25.926;2023-12-20T06:06:30;9.07;;;6.00;;
26750;SDS011;14345;48.272;25.926;2023-12-20T06:08:56;7.82;;;4.50;;
26750;SDS011;14345;48.272;25.926;2023-12-20T06:11:23;6.45;;;3.92;;
26750;SDS011;14345;48.272;25.926;2023-12-20T06:13:49;6.35;;;4.00;;
26750;SDS011;14345;48.272;25.926;2023-12-20T06:16:17;7.32;;;3.42;;
26750;SDS011;14345;48.272;25.926;2023-12-20T06:18:43;5.30;;;2.90;;
26750;SDS011;14345;48.272;25.926;2023-12-20T06:21:09;9.85;;;2.80;;
26750;SDS011;14345;48.272;25.926;2023-12-20T06:23:38;5.13;;;2.90;;
26750;SDS011;14345;48.272;25.926;2023-12-20T06:26:04;4.38;;;2.40;;
26750;SDS011;14345;48.272;25.926;2023-12-20T06:28:30;5.93;;;2.60;;
26750;SDS011;14345;48.272;25.926;2023-12-20T06:30:56;7.47;;;3.05;;
26750;SDS011;14345;48.272;25.926;2023-12-20T06:33:22;6.57;;;2.88;;
26750;SDS011;14345;48.272;25.926;2023-12-20T06:35:49;4.85;;;2.47;;
26750;SDS011;14345;48.272;25.926;2023-12-20T06:38:15;8.40;;;4.32;;
26750;SDS011;14345;48.272;25.926;2023-12-20T06:40:41;10.40;;;5.35;;
26750;SDS011;14345;48.272;25.926;2023-12-20T06:43:07;13.13;;;6.70;;
26750;SDS011;14345;48.272;25.926;2023-12-20T06:45:33;13.30;;;7.22;;
26750;SDS011;14345;48.272;25.926;2023-12-20T06:47:59;10.43;;;5.55;;
26750;SDS011;14345;48.272;25.926;2023-12-20T06:50:25;9.15;;;5.80;;
26750;SDS011;14345;48.272;25.926;2023-12-20T06:52:52;9.75;;;5.82;;
26750;SDS011;14345;48.272;25.926;2023-12-20T06:55:18;11.82;;;5.75;;
26750;SDS011;14345;48.272;25.926;2023-12-20T06:57:44;10.80;;;6.03;;
26750;SDS011;14345;48.272;25.926;2023-12-20T07:00:13;9.93;;;6.00;;
26750;SDS011;14345;48.272;25.926;2023-12-20T07:02:40;12.40;;;5.57;;
26750;SDS011;14345;48.272;25.926;2023-12-20T07:05:06;6.93;;;5.20;;
26750;SDS011;14345;48.272;25.926;2023-12-20T07:07:32;10.90;;;4.38;;
26750;SDS011;14345;48.272;25.926;2023-12-20T07:09:58;4.18;;;2.65;;
26750;SDS011;14345;48.272;25.926;2023-12-20T07:12:24;6.18;;;3.40;;
26750;SDS011;14345;48.272;25.926;2023-12-20T07:14:50;7.45;;;3.45;;
26750;SDS011;14345;48.272;25.926;2023-12-20T07:17:16;6.55;;;3.88;;
26750;SDS011;14345;48.272;25.926;2023-12-20T07:19:42;8.23;;;4.13;;
26750;SDS011;14345;48.272;25.926;2023-12-20T07:22:08;7.90;;;4.18;;
26750;SDS011;14345;48.272;25.926;2023-12-20T07:24:34;6.85;;;4.03;;
26750;SDS011;14345;48.272;25.926;2023-12-20T07:27:00;7.97;;;4.00;;
26750;SDS011;14345;48.272;25.926;2023-12-20T07:29:26;9.40;;;4.40;;
26750;SDS011;14345;48.272;25.926;2023-12-20T07:31:52;13.45;;;4.78;;
26750;SDS011;14345;48.272;25.926;2023-12-20T07:34:19;14.80;;;5.03;;
26750;SDS011;14345;48.272;25.926;2023-12-20T07:36:45;11.70;;;4.65;;
26750;SDS011;14345;48.272;25.926;2023-12-20T07:39:12;7.32;;;3.80;;
26750;SDS011;14345;48.272;25.926;2023-12-20T07:41:38;11.88;;;4.22;;
26750;SDS011;14345;48.272;25.926;2023-12-20T07:44:04;16.85;;;6.35;;
26750;SDS011;14345;48.272;25.926;2023-12-20T07:46:31;15.05;;;8.80;;
26750;SDS011;14345;48.272;25.926;2023-12-20T07:48:57;23.70;;;11.45;;
26750;SDS011;14345;48.272;25.926;2023-12-20T07:51:23;21.25;;;11.45;;
26750;SDS011;14345;48.272;25.926;2023-12-20T07:53:49;28.17;;;12.73;;
26750;SDS011;14345;48.272;25.926;2023-12-20T07:58:41;24.58;;;11.57;;
26750;SDS011;14345;48.272;25.926;2023-12-20T08:01:07;23.48;;;12.18;;
26750;SDS011;14345;48.272;25.926;2023-12-20T08:03:33;19.42;;;10.15;;
26750;SDS011;14345;48.272;25.926;2023-12-20T08:06:00;24.23;;;11.05;;
26750;SDS011;14345;48.272;25.926;2023-12-20T08:08:26;26.90;;;13.40;;
26750;SDS011;14345;48.272;25.926;2023-12-20T08:10:51;28.50;;;14.75;;
26750;SDS011;14345;48.272;25.926;2023-12-20T08:13:17;27.20;;;15.68;;
26750;SDS011;14345;48.272;25.926;2023-12-20T08:15:43;28.55;;;14.55;;
26750;SDS011;14345;48.272;25.926;2023-12-20T08:18:09;24.17;;;13.63;;
26750;SDS011;14345;48.272;25.926;2023-12-20T08:20:36;27.35;;;14.02;;
26750;SDS011;14345;48.272;25.926;2023-12-20T08:23:02;32.40;;;14.27;;
26750;SDS011;14345;48.272;25.926;2023-12-20T08:25:28;23.35;;;12.52;;
26750;SDS011;14345;48.272;25.926;2023-12-20T08:27:54;38.88;;;15.45;;
26750;SDS011;14345;48.272;25.926;2023-12-20T08:30:20;23.33;;;13.88;;
26750;SDS011;14345;48.272;25.926;2023-12-20T08:32:49;22.25;;;13.32;;
26750;SDS011;14345;48.272;25.926;2023-12-20T08:35:15;28.40;;;14.70;;
26750;SDS011;14345;48.272;25.926;2023-12-20T08:37:42;27.90;;;14.48;;
26750;SDS011;14345;48.272;25.926;2023-12-20T08:40:09;29.60;;;14.70;;
26750;SDS011;14345;48.272;25.926;2023-12-20T08:42:35;33.53;;;16.52;;
26750;SDS011;14345;48.272;25.926;2023-12-20T08:45:01;33.10;;;18.10;;
26750;SDS011;14345;48.272;25.926;2023-12-20T08:47:29;34.50;;;17.67;;
26750;SDS011;14345;48.272;25.926;2023-12-20T08:49:55;37.10;;;19.73;;
26750;SDS011;14345;48.272;25.926;2023-12-20T08:52:23;34.42;;;18.92;;
26750;SDS011;14345;48.272;25.926;2023-12-20T08:54:49;36.63;;;19.20;;
26750;SDS011;14345;48.272;25.926;2023-12-20T08:57:20;36.80;;;18.23;;
26750;SDS011;14345;48.272;25.926;2023-12-20T08:59:46;33.10;;;17.30;;
26750;SDS011;14345;48.272;25.926;2023-12-20T09:02:13;32.20;;;16.30;;
26750;SDS011;14345;48.272;25.926;2023-12-20T09:04:39;33.58;;;16.00;;
26750;SDS011;14345;48.272;25.926;2023-12-20T09:07:05;29.33;;;15.45;;
26750;SDS011;14345;48.272;25.926;2023-12-20T09:09:32;26.52;;;13.95;;
26750;SDS011;14345;48.272;25.926;2023-12-20T09:11:58;26.75;;;15.00;;
26750;SDS011;14345;48.272;25.926;2023-12-20T09:14:24;28.80;;;15.75;;
26750;SDS011;14345;48.272;25.926;2023-12-20T09:16:51;24.85;;;13.48;;
26750;SDS011;14345;48.272;25.926;2023-12-20T09:19:17;23.05;;;13.05;;
26750;SDS011;14345;48.272;25.926;2023-12-20T09:21:43;24.98;;;13.00;;
26750;SDS011;14345;48.272;25.926;2023-12-20T09:24:09;18.70;;;10.63;;
26750;SDS011;14345;48.272;25.926;2023-12-20T09:26:35;20.95;;;9.52;;
26750;SDS011;14345;48.272;25.926;2023-12-20T09:29:02;16.88;;;9.80;;
26750;SDS011;14345;48.272;25.926;2023-12-20T09:31:28;17.92;;;10.48;;
26750;SDS011;14345;48.272;25.926;2023-12-20T09:33:54;24.73;;;12.48;;
26750;SDS011;14345;48.272;25.926;2023-12-20T09:36:20;25.10;;;13.52;;
26750;SDS011;14345;48.272;25.926;2023-12-20T09:38:46;28.23;;;13.90;;
26750;SDS011;14345;48.272;25.926;2023-12-20T09:41:12;21.73;;;13.20;;
26750;SDS011;14345;48.272;25.926;2023-12-20T09:43:38;25.27;;;12.82;;
26750;SDS011;14345;48.272;25.926;2023-12-20T09:46:05;26.67;;;13.93;;
26750;SDS011;14345;48.272;25.926;2023-12-20T09:48:32;24.98;;;13.70;;
26750;SDS011;14345;48.272;25.926;2023-12-20T09:50:59;27.70;;;15.30;;
26750;SDS011;14345;48.272;25.926;2023-12-20T09:53:25;34.35;;;18.02;;
26750;SDS011;14345;48.272;25.926;2023-12-20T09:55:56;29.40;;;16.05;;
26750;SDS011;14345;48.272;25.926;2023-12-20T09:58:25;34.15;;;15.48;;
26750;SDS011;14345;48.272;25.926;2023-12-20T10:00:51;37.53;;;18.25;;
26750;SDS011;14345;48.272;25.926;2023-12-20T10:03:18;29.40;;;16.20;;
26750;SDS011;14345;48.272;25.926;2023-12-20T10:05:48;35.30;;;17.05;;
26750;SDS011;14345;48.272;25.926;2023-12-20T10:08:18;33.65;;;16.27;;
26750;SDS011;14345;48.272;25.926;2023-12-20T10:10:47;34.83;;;17.52;;
26750;SDS011;14345;48.272;25.926;2023-12-20T10:13:13;32.40;;;16.58;;
26750;SDS011;14345;48.272;25.926;2023-12-20T10:15:39;34.78;;;16.60;;
26750;SDS011;14345;48.272;25.926;2023-12-20T10:18:05;33.00;;;16.60;;
26750;SDS011;14345;48.272;25.926;2023-12-20T10:20:32;39.33;;;18.40;;
26750;SDS011;14345;48.272;25.926;2023-12-20T10:22:59;32.80;;;18.60;;
26750;SDS011;14345;48.272;25.926;2023-12-20T10:25:25;48.72;;;21.55;;
26750;SDS011;14345;48.272;25.926;2023-12-20T10:28:12;39.75;;;21.58;;
26750;SDS011;14345;48.272;25.926;2023-12-20T10:30:38;46.00;;;23.30;;
26750;SDS011;14345;48.272;25.926;2023-12-20T10:33:08;46.03;;;24.45;;
26750;SDS011;14345;48.272;25.926;2023-12-20T10:35:35;55.08;;;26.63;;
26750;SDS011;14345;48.272;25.926;2023-12-20T10:38:05;51.50;;;25.73;;
26750;SDS011;14345;48.272;25.926;2023-12-20T10:40:34;55.05;;;25.77;;
26750;SDS011;14345;48.272;25.926;2023-12-20T10:43:02;57.25;;;28.10;;
26750;SDS011;14345;48.272;25.926;2023-12-20T10:45:28;48.88;;;27.17;;
26750;SDS011;14345;48.272;25.926;2023-12-20T10:47:54;51.95;;;28.88;;
26750;SDS011;14345;48.272;25.926;2023-12-20T10:50:21;47.50;;;27.15;;
26750;SDS011;14345;48.272;25.926;2023-12-20T10:52:47;64.20;;;33.85;;
26750;SDS011;14345;48.272;25.926;2023-12-20T10:55:14;57.50;;;31.02;;
26750;SDS011;14345;48.272;25.926;2023-12-20T10:57:40;49.95;;;27.88;;
26750;SDS011;14345;48.272;25.926;2023-12-20T11:00:08;63.58;;;33.67;;
26750;SDS011;14345;48.272;25.926;2023-12-20T11:02:36;58.50;;;34.70;;
26750;SDS011;14345;48.272;25.926;2023-12-20T11:05:06;62.92;;;35.22;;
26750;SDS011;14345;48.272;25.926;2023-12-20T11:07:36;59.58;;;33.65;;
26750;SDS011;14345;48.272;25.926;2023-12-20T11:10:10;54.45;;;31.83;;
26750;SDS011;14345;48.272;25.926;2023-12-20T11:12:44;62.47;;;31.17;;
26750;SDS011;14345;48.272;25.926;2023-12-20T11:15:13;42.17;;;26.40;;
26750;SDS011;14345;48.272;25.926;2023-12-20T11:17:40;42.97;;;26.00;;
26750;SDS011;14345;48.272;25.926;2023-12-20T11:20:07;40.63;;;24.55;;
26750;SDS011;14345;48.272;25.926;2023-12-20T11:22:35;41.13;;;21.55;;
26750;SDS011;14345;48.272;25.926;2023-12-20T11:25:06;37.80;;;20.38;;
26750;SDS011;14345;48.272;25.926;2023-12-20T11:27:36;38.08;;;19.60;;
26750;SDS011;14345;48.272;25.926;2023-12-20T11:30:03;84.65;;;42.60;;
26750;SDS011;14345;48.272;25.926;2023-12-20T11:32:34;101.45;;;52.92;;
26750;SDS011;14345;48.272;25.926;2023-12-20T11:35:01;91.88;;;54.15;;
26750;SDS011;14345;48.272;25.926;2023-12-20T11:37:41;98.40;;;54.65;;
26750;SDS011;14345;48.272;25.926;2023-12-20T11:40:08;108.93;;;60.10;;
26750;SDS011;14345;48.272;25.926;2023-12-20T11:42:40;101.75;;;59.05;;
26750;SDS011;14345;48.272;25.926;2023-12-20T11:45:09;86.60;;;52.95;;
26750;SDS011;14345;48.272;25.926;2023-12-20T11:47:36;86.53;;;51.58;;
26750;SDS011;14345;48.272;25.926;2023-12-20T11:50:02;90.30;;;50.88;;
26750;SDS011;14345;48.272;25.926;2023-12-20T11:52:29;84.22;;;51.05;;
26750;SDS011;14345;48.272;25.926;2023-12-20T11:54:55;77.43;;;47.67;;
26750;SDS011;14345;48.272;25.926;2023-12-20T11:57:21;72.32;;;45.53;;
26750;SDS011;14345;48.272;25.926;2023-12-20T11:59:47;73.30;;;44.25;;
26750;SDS011;14345;48.272;25.926;2023-12-20T12:02:13;77.57;;;45.35;;
26750;SDS011;14345;48.272;25.926;2023-12-20T12:04:43;75.30;;;45.67;;
26750;SDS011;14345;48.272;25.926;2023-12-20T12:07:09;71.60;;;44.08;;
26750;SDS011;14345;48.272;25.926;2023-12-20T12:09:35;77.50;;;44.50;;
26750;SDS011;14345;48.272;25.926;2023-12-20T12:12:01;80.20;;;48.03;;
26750;SDS011;14345;48.272;25.926;2023-12-20T12:14:27;78.85;;;46.42;;
26750;SDS011;14345;48.272;25.926;2023-12-20T12:16:53;78.05;;;45.70;;
26750;SDS011;14345;48.272;25.926;2023-12-20T12:19:20;85.93;;;48.95;;
26750;SDS011;14345;48.272;25.926;2023-12-20T12:21:46;82.25;;;47.42;;
26750;SDS011;14345;48.272;25.926;2023-12-20T12:24:12;77.25;;;44.15;;
26750;SDS011;14345;48.272;25.926;2023-12-20T12:26:38;75.68;;;44.38;;
26750;SDS011;14345;48.272;25.926;2023-12-20T12:29:07;71.07;;;42.85;;
26750;SDS011;14345;48.272;25.926;2023-12-20T12:31:33;96.38;;;50.97;;
26750;SDS011;14345;48.272;25.926;2023-12-20T12:33:59;76.93;;;46.45;;
26750;SDS011;14345;48.272;25.926;2023-12-20T12:36:25;76.55;;;44.15;;
26750;SDS011;14345;48.272;25.926;2023-12-20T12:38:51;85.63;;;47.47;;
26750;SDS011;14345;48.272;25.926;2023-12-20T12:41:17;88.28;;;50.38;;
26750;SDS011;14345;48.272;25.926;2023-12-20T12:43:43;92.50;;;49.38;;
26750;SDS011;14345;48.272;25.926;2023-12-20T12:46:09;89.53;;;46.55;;
26750;SDS011;14345;48.272;25.926;2023-12-20T12:48:35;96.32;;;48.20;;
26750;SDS011;14345;48.272;25.926;2023-12-20T12:51:01;97.32;;;49.65;;
26750;SDS011;14345;48.272;25.926;2023-12-20T12:53:27;85.18;;;47.22;;
26750;SDS011;14345;48.272;25.926;2023-12-20T12:55:53;86.85;;;46.40;;
26750;SDS011;14345;48.272;25.926;2023-12-20T12:58:19;85.13;;;46.35;;
26750;SDS011;14345;48.272;25.926;2023-12-20T13:00:45;74.45;;;43.60;;
26750;SDS011;14345;48.272;25.926;2023-12-20T13:03:11;92.85;;;46.60;;
26750;SDS011;14345;48.272;25.926;2023-12-20T13:05:37;88.78;;;47.78;;
26750;SDS011;14345;48.272;25.926;2023-12-20T13:08:04;85.82;;;49.45;;
26750;SDS011;14345;48.272;25.926;2023-12-20T13:10:30;94.57;;;50.55;;
26750;SDS011;14345;48.272;25.926;2023-12-20T13:12:56;93.35;;;50.58;;
26750;SDS011;14345;48.272;25.926;2023-12-20T13:15:22;104.18;;;56.90;;
26750;SDS011;14345;48.272;25.926;2023-12-20T13:17:48;126.25;;;64.88;;
26750;SDS011;14345;48.272;25.926;2023-12-20T13:20:14;114.05;;;61.47;;
26750;SDS011;14345;48.272;25.926;2023-12-20T13:22:40;94.82;;;52.42;;
26750;SDS011;14345;48.272;25.926;2023-12-20T13:25:06;101.22;;;51.78;;
26750;SDS011;14345;48.272;25.926;2023-12-20T13:27:32;93.30;;;49.65;;
26750;SDS011;14345;48.272;25.926;2023-12-20T13:29:59;96.70;;;50.15;;
26750;SDS011;14345;48.272;25.926;2023-12-20T13:32:26;91.38;;;51.33;;
26750;SDS011;14345;48.272;25.926;2023-12-20T13:34:52;114.75;;;60.92;;
26750;SDS011;14345;48.272;25.926;2023-12-20T13:37:18;112.22;;;61.40;;
26750;SDS011;14345;48.272;25.926;2023-12-20T13:39:44;104.45;;;56.30;;
26750;SDS011;14345;48.272;25.926;2023-12-20T13:42:10;93.85;;;55.78;;
26750;SDS011;14345;48.272;25.926;2023-12-20T13:44:36;104.38;;;59.03;;
26750;SDS011;14345;48.272;25.926;2023-12-20T13:47:02;92.32;;;53.30;;
26750;SDS011;14345;48.272;25.926;2023-12-20T13:49:29;96.68;;;55.65;;
26750;SDS011;14345;48.272;25.926;2023-12-20T13:51:55;95.50;;;55.45;;
26750;SDS011;14345;48.272;25.926;2023-12-20T13:54:22;102.57;;;58.53;;
26750;SDS011;14345;48.272;25.926;2023-12-20T13:56:48;107.97;;;57.47;;
26750;SDS011;14345;48.272;25.926;2023-12-20T13:59:15;106.30;;;60.53;;
26750;SDS011;14345;48.272;25.926;2023-12-20T14:01:41;117.22;;;63.00;;
26750;SDS011;14345;48.272;25.926;2023-12-20T14:04:07;139.13;;;73.30;;
26750;SDS011;14345;48.272;25.926;2023-12-20T14:06:33;133.95;;;71.45;;
26750;SDS011;14345;48.272;25.926;2023-12-20T14:08:59;128.90;;;65.55;;
26750;SDS011;14345;48.272;25.926;2023-12-20T14:11:25;128.52;;;65.43;;
26750;SDS011;14345;48.272;25.926;2023-12-20T14:13:51;115.03;;;64.47;;